Time;durP1;ratioP1;P1;durP2;ratioP2;P2;SDS_P1;SDS_P2;PMS_P1;PMS_P2;Temp;Humidity;BMP_temperature;BMP_pressure;BME280_temperature;BME280_humidity;BME280_pressure;Samples;Min_cycle;Max_cycle;Signal;HPM_P1;HPM_P2
2024/02/26 00:01:27;;;;;;;1.38;1.27;;;;;;;;;;5055052;28;20374;-83
2024/02/26 00:03:55;;;;;;;1.60;1.38;;;;;;;;;;5054975;28;20370;-83
2024/02/26 00:06:21;;;;;;;1.40;1.20;;;;;;;;;;5054423;28;20378;-83
2024/02/26 00:08:47;;;;;;;1.75;1.42;;;;;;;;;;5054624;28;20709;-83
2024/02/26 00:11:13;;;;;;;1.63;1.40;;;;;;;;;;5054678;28;20392;-82
2024/02/26 00:13:39;;;;;;;1.92;1.50;;;;;;;;;;5054645;28;20377;-81
2024/02/26 00:16:06;;;;;;;2.08;1.48;;;;;;;;;;5054975;28;20454;-82
2024/02/26 00:18:32;;;;;;;1.70;1.40;;;;;;;;;;5055198;28;20518;-82
2024/02/26 00:20:58;;;;;;;2.22;1.30;;;;;;;;;;5055072;28;20855;-82
2024/02/26 00:23:24;;;;;;;1.87;1.50;;;;;;;;;;5055211;28;20834;-83
2024/02/26 00:25:50;;;;;;;1.55;1.40;;;;;;;;;;5054383;28;20389;-83
2024/02/26 00:28:16;;;;;;;1.42;1.33;;;;;;;;;;5054782;28;20373;-82
2024/02/26 00:30:42;;;;;;;1.83;1.50;;;;;;;;;;5054441;28;20405;-81
2024/02/26 00:33:08;;;;;;;1.30;1.10;;;;;;;;;;5054801;28;20386;-81
2024/02/26 00:35:34;;;;;;;1.30;1.20;;;;;;;;;;5054727;28;20405;-81
2024/02/26 00:38:03;;;;;;;1.40;1.30;;;;;;;;;;5053626;28;20586;-83
2024/02/26 00:40:29;;;;;;;1.50;1.10;;;;;;;;;;5054752;28;20461;-81
2024/02/26 00:42:55;;;;;;;2.50;1.17;;;;;;;;;;5054856;28;20396;-80
2024/02/26 00:45:21;;;;;;;1.00;0.90;;;;;;;;;;5054258;28;20382;-81
2024/02/26 00:47:48;;;;;;;2.03;1.17;;;;;;;;;;5054451;28;20410;-81
2024/02/26 00:50:14;;;;;;;1.30;1.02;;;;;;;;;;5054127;28;20385;-81
2024/02/26 00:52:40;;;;;;;1.10;1.00;;;;;;;;;;5054605;28;21012;-81
2024/02/26 00:55:06;;;;;;;1.30;1.20;;;;;;;;;;5054186;28;20425;-81
2024/02/26 00:57:32;;;;;;;1.30;1.08;;;;;;;;;;5054342;28;20378;-81
2024/02/26 00:59:59;;;;;;;1.10;1.00;;;;;;;;;;5054513;28;20378;-82
2024/02/26 01:02:25;;;;;;;1.13;1.00;;;;;;;;;;5054095;28;20392;-81
2024/02/26 01:04:51;;;;;;;2.00;0.90;;;;;;;;;;5053692;28;20396;-83
2024/02/26 01:07:17;;;;;;;1.67;1.00;;;;;;;;;;5042005;28;20437;-82
2024/02/26 01:09:43;;;;;;;0.90;0.80;;;;;;;;;;5038635;28;20389;-83
2024/02/26 01:12:09;;;;;;;1.05;0.88;;;;;;;;;;5054239;28;20901;-81
2024/02/26 01:14:35;;;;;;;1.02;0.93;;;;;;;;;;5054292;28;20485;-80
2024/02/26 01:17:01;;;;;;;1.10;0.90;;;;;;;;;;5053483;28;20409;-81
2024/02/26 01:19:27;;;;;;;1.40;0.95;;;;;;;;;;5054396;28;20431;-81
2024/02/26 01:21:53;;;;;;;1.67;0.90;;;;;;;;;;5054131;28;20377;-81
2024/02/26 01:24:19;;;;;;;1.20;1.08;;;;;;;;;;5053662;28;20393;-82
2024/02/26 01:26:45;;;;;;;1.33;1.23;;;;;;;;;;5054229;28;20419;-83
2024/02/26 01:29:11;;;;;;;1.50;1.40;;;;;;;;;;5053673;28;20819;-83
2024/02/26 01:31:37;;;;;;;1.70;1.60;;;;;;;;;;5054187;28;20385;-82
2024/02/26 01:34:03;;;;;;;1.93;1.83;;;;;;;;;;5053904;28;20963;-82
2024/02/26 01:36:29;;;;;;;2.05;1.85;;;;;;;;;;5053688;28;20378;-82
2024/02/26 01:38:55;;;;;;;1.67;1.45;;;;;;;;;;5053053;28;20894;-82
2024/02/26 01:41:21;;;;;;;2.05;1.80;;;;;;;;;;5053240;28;20385;-83
2024/02/26 01:43:47;;;;;;;1.50;1.40;;;;;;;;;;5053761;28;20370;-84
2024/02/26 01:46:14;;;;;;;1.45;1.35;;;;;;;;;;5053378;28;20395;-81
2024/02/26 01:48:44;;;;;;;1.50;1.40;;;;;;;;;;5053723;28;20464;-82
2024/02/26 01:51:11;;;;;;;1.30;1.20;;;;;;;;;;5053630;28;20385;-83
2024/02/26 01:53:37;;;;;;;1.30;1.20;;;;;;;;;;5053727;28;20381;-82
2024/02/26 01:56:04;;;;;;;1.57;1.20;;;;;;;;;;5053895;28;20416;-81
2024/02/26 01:58:30;;;;;;;1.20;1.08;;;;;;;;;;5053374;28;20414;-81
2024/02/26 02:00:56;;;;;;;1.25;1.13;;;;;;;;;;5053342;28;20473;-82
2024/02/26 02:03:23;;;;;;;1.50;1.30;;;;;;;;;;5042656;28;20381;-82
2024/02/26 02:05:49;;;;;;;1.70;1.30;;;;;;;;;;5038353;28;20394;-82
2024/02/26 02:08:15;;;;;;;1.73;1.30;;;;;;;;;;5038103;28;20403;-83
2024/02/26 02:10:44;;;;;;;1.52;1.30;;;;;;;;;;5037542;28;20387;-81
2024/02/26 02:13:10;;;;;;;1.60;1.25;;;;;;;;;;5038335;28;20788;-81
2024/02/26 02:15:36;;;;;;;1.50;1.27;;;;;;;;;;5037454;28;20419;-82
2024/02/26 02:18:02;;;;;;;1.80;1.30;;;;;;;;;;5037481;28;20429;-82
2024/02/26 02:20:34;;;;;;;2.95;2.65;;;;;;;;;;5037303;28;20382;-82
2024/02/26 02:23:00;;;;;;;3.90;2.95;;;;;;;;;;5037381;28;20383;-82
2024/02/26 02:25:26;;;;;;;2.90;2.60;;;;;;;;;;5037590;28;20738;-82
2024/02/26 02:27:54;;;;;;;2.63;2.40;;;;;;;;;;5037435;28;20391;-82
2024/02/26 02:30:21;;;;;;;2.22;1.88;;;;;;;;;;5036763;28;20379;-82
2024/02/26 02:32:47;;;;;;;2.30;1.63;;;;;;;;;;5037269;28;20845;-83
2024/02/26 02:35:13;;;;;;;2.63;2.30;;;;;;;;;;5037061;28;20406;-82
2024/02/26 02:37:39;;;;;;;15.35;10.38;;;;;;;;;;5036505;28;20379;-83
2024/02/26 02:40:05;;;;;;;8.38;6.63;;;;;;;;;;5036905;28;20724;-82
2024/02/26 02:42:31;;;;;;;5.57;4.50;;;;;;;;;;5037207;28;20379;-81
2024/02/26 02:44:58;;;;;;;4.38;3.42;;;;;;;;;;5037223;28;20392;-82
2024/02/26 02:47:23;;;;;;;2.60;2.40;;;;;;;;;;5036834;28;20394;-82
2024/02/26 02:49:50;;;;;;;2.25;1.95;;;;;;;;;;5037394;28;20460;-81
2024/02/26 02:52:15;;;;;;;1.35;1.10;;;;;;;;;;5037296;28;20757;-81
2024/02/26 02:54:42;;;;;;;1.58;1.20;;;;;;;;;;5036650;28;20422;-81
2024/02/26 02:57:10;;;;;;;1.50;1.30;;;;;;;;;;5036280;28;20390;-82
2024/02/26 02:59:37;;;;;;;4.65;3.47;;;;;;;;;;5036581;28;20380;-81
2024/02/26 03:02:03;;;;;;;3.03;2.40;;;;;;;;;;5036353;28;20385;-81
2024/02/26 03:04:29;;;;;;;3.20;2.40;;;;;;;;;;5045417;28;20455;-81
2024/02/26 03:06:56;;;;;;;1.98;1.65;;;;;;;;;;5055917;28;20386;-81
2024/02/26 03:09:22;;;;;;;2.30;1.80;;;;;;;;;;5056173;28;20392;-81
2024/02/26 03:11:48;;;;;;;2.17;1.75;;;;;;;;;;5056252;28;20867;-81
2024/02/26 03:14:14;;;;;;;2.42;2.22;;;;;;;;;;5055560;28;20393;-81
2024/02/26 03:16:40;;;;;;;2.50;2.08;;;;;;;;;;5055885;28;20415;-80
2024/02/26 03:19:06;;;;;;;2.53;2.00;;;;;;;;;;5056224;28;20378;-81
2024/02/26 03:21:32;;;;;;;2.55;2.00;;;;;;;;;;5056476;28;20385;-81
2024/02/26 03:23:58;;;;;;;2.15;1.73;;;;;;;;;;5056126;28;20464;-81
2024/02/26 03:26:24;;;;;;;2.20;1.47;;;;;;;;;;5055968;28;20376;-82
2024/02/26 03:28:50;;;;;;;28.02;13.65;;;;;;;;;;5056088;28;20784;-81
2024/02/26 03:31:16;;;;;;;8.80;5.30;;;;;;;;;;5055941;28;20412;-81
2024/02/26 03:33:42;;;;;;;6.63;4.80;;;;;;;;;;5055898;28;20374;-81
2024/02/26 03:36:08;;;;;;;3.80;2.83;;;;;;;;;;5055518;28;20421;-81
2024/02/26 03:38:34;;;;;;;1.27;0.85;;;;;;;;;;5055372;28;20383;-81
2024/02/26 03:41:00;;;;;;;2.03;1.30;;;;;;;;;;5055824;28;20381;-81
2024/02/26 03:43:26;;;;;;;1.05;0.93;;;;;;;;;;5055643;28;20381;-81
2024/02/26 03:45:52;;;;;;;1.20;1.10;;;;;;;;;;5055200;28;20465;-83
2024/02/26 03:48:18;;;;;;;1.83;1.25;;;;;;;;;;5055419;28;20717;-83
2024/02/26 03:50:44;;;;;;;2.90;1.17;;;;;;;;;;5055622;28;20452;-82
2024/02/26 03:53:12;;;;;;;1.30;1.20;;;;;;;;;;5055807;28;20390;-83
2024/02/26 03:55:38;;;;;;;1.20;1.10;;;;;;;;;;5055737;28;20427;-83
2024/02/26 03:58:04;;;;;;;1.30;1.20;;;;;;;;;;5054349;28;20994;-83
2024/02/26 04:00:30;;;;;;;1.20;1.10;;;;;;;;;;5055503;28;20369;-83
2024/02/26 04:02:56;;;;;;;1.20;1.08;;;;;;;;;;5055590;28;20378;-83
2024/02/26 04:05:22;;;;;;;2.40;1.20;;;;;;;;;;5055768;28;20377;-83
2024/02/26 04:07:48;;;;;;;2.50;1.10;;;;;;;;;;5055936;28;20385;-83
2024/02/26 04:10:14;;;;;;;1.70;1.08;;;;;;;;;;5055277;28;20567;-82
2024/02/26 04:12:41;;;;;;;1.60;1.17;;;;;;;;;;5055453;28;20464;-83
2024/02/26 04:15:10;;;;;;;1.53;1.10;;;;;;;;;;5054907;28;20405;-82
2024/02/26 04:17:37;;;;;;;1.15;1.05;;;;;;;;;;5055085;28;20377;-83
2024/02/26 04:20:05;;;;;;;1.25;1.15;;;;;;;;;;5055719;28;20381;-83
2024/02/26 04:22:32;;;;;;;2.05;1.10;;;;;;;;;;5055749;28;20729;-83
2024/02/26 04:24:58;;;;;;;2.20;1.97;;;;;;;;;;5055475;28;20423;-82
2024/02/26 04:27:24;;;;;;;2.90;2.33;;;;;;;;;;5055052;28;20866;-81
2024/02/26 04:29:50;;;;;;;3.10;2.80;;;;;;;;;;5054995;28;20783;-82
2024/02/26 04:32:16;;;;;;;3.08;2.28;;;;;;;;;;5054951;28;20739;-82
2024/02/26 04:34:42;;;;;;;2.53;1.88;;;;;;;;;;5055806;28;20401;-82
2024/02/26 04:37:08;;;;;;;2.00;1.80;;;;;;;;;;5055582;28;20401;-81
2024/02/26 04:39:34;;;;;;;1.10;1.00;;;;;;;;;;5055613;28;20470;-82
2024/02/26 04:42:03;;;;;;;1.73;1.30;;;;;;;;;;5055116;28;20380;-81
2024/02/26 04:44:30;;;;;;;1.20;1.10;;;;;;;;;;5054675;28;20395;-81
2024/02/26 04:46:56;;;;;;;1.70;1.13;;;;;;;;;;5052778;28;20498;-81
2024/02/26 04:49:22;;;;;;;1.92;1.35;;;;;;;;;;5053265;28;20409;-83
2024/02/26 04:51:48;;;;;;;1.67;1.10;;;;;;;;;;5054114;28;20896;-83
2024/02/26 04:54:14;;;;;;;1.17;1.05;;;;;;;;;;5053947;28;20396;-81
2024/02/26 04:56:40;;;;;;;2.67;1.20;;;;;;;;;;5052933;28;20790;-83
2024/02/26 04:59:06;;;;;;;1.30;1.00;;;;;;;;;;5053383;28;20894;-82
2024/02/26 05:01:32;;;;;;;1.25;1.00;;;;;;;;;;5052362;28;20381;-82
2024/02/26 05:03:58;;;;;;;1.10;0.97;;;;;;;;;;5053344;28;20868;-83
2024/02/26 05:06:24;;;;;;;1.50;0.90;;;;;;;;;;5053534;28;20439;-83
2024/02/26 05:08:50;;;;;;;1.48;1.20;;;;;;;;;;5053288;28;20800;-82
2024/02/26 05:11:18;;;;;;;3.43;2.10;;;;;;;;;;5037982;28;20421;-82
2024/02/26 05:13:45;;;;;;;2.33;1.50;;;;;;;;;;5034760;28;20399;-82
2024/02/26 05:16:11;;;;;;;2.05;1.60;;;;;;;;;;5034279;28;20441;-81
2024/02/26 05:18:37;;;;;;;1.40;1.30;;;;;;;;;;5034621;28;20410;-82
2024/02/26 05:21:03;;;;;;;1.15;1.00;;;;;;;;;;5034734;28;20379;-82
2024/02/26 05:23:29;;;;;;;1.23;0.90;;;;;;;;;;5034732;28;20375;-82
2024/02/26 05:25:55;;;;;;;2.30;1.10;;;;;;;;;;5035078;28;20387;-81
2024/02/26 05:28:21;;;;;;;1.13;1.03;;;;;;;;;;5053579;28;20524;-82
2024/02/26 05:30:48;;;;;;;1.85;1.30;;;;;;;;;;5053421;28;20827;-83
2024/02/26 05:33:14;;;;;;;2.30;1.63;;;;;;;;;;5051656;28;20432;-84
2024/02/26 05:35:41;;;;;;;1.67;1.30;;;;;;;;;;5053083;28;20409;-81
2024/02/26 05:38:07;;;;;;;1.55;1.20;;;;;;;;;;5058609;28;20472;-83
2024/02/26 05:40:33;;;;;;;4.75;1.35;;;;;;;;;;5058822;28;20377;-85
2024/02/26 05:42:59;;;;;;;1.98;1.27;;;;;;;;;;5059465;28;21103;-83
2024/02/26 05:45:25;;;;;;;3.65;1.92;;;;;;;;;;5060601;28;20389;-81
2024/02/26 05:47:51;;;;;;;1.08;0.98;;;;;;;;;;5059691;28;20766;-83
2024/02/26 05:50:17;;;;;;;1.10;0.90;;;;;;;;;;5060033;28;20385;-81
2024/02/26 05:52:43;;;;;;;1.40;1.10;;;;;;;;;;5061212;28;20782;-82
2024/02/26 05:55:09;;;;;;;1.55;0.95;;;;;;;;;;5060441;28;20405;-81
2024/02/26 05:57:35;;;;;;;1.27;0.90;;;;;;;;;;5061409;28;20381;-82
2024/02/26 06:00:03;;;;;;;0.73;0.73;;;;;;;;;;5061357;28;20388;-82
2024/02/26 06:02:32;;;;;;;0.87;0.80;;;;;;;;;;5060560;28;20369;-83
2024/02/26 06:04:59;;;;;;;1.88;1.00;;;;;;;;;;5060226;28;21069;-81
2024/02/26 06:07:25;;;;;;;1.03;0.77;;;;;;;;;;5058565;28;20393;-81
2024/02/26 06:09:51;;;;;;;1.10;0.73;;;;;;;;;;5060128;28;20392;-81
2024/02/26 06:12:17;;;;;;;0.85;0.80;;;;;;;;;;5059692;28;20471;-83
2024/02/26 06:14:43;;;;;;;1.00;0.90;;;;;;;;;;5060099;28;20409;-83
2024/02/26 06:17:09;;;;;;;0.93;0.80;;;;;;;;;;5060280;28;20393;-81
2024/02/26 06:19:35;;;;;;;1.30;1.00;;;;;;;;;;5060429;28;20885;-81
2024/02/26 06:22:01;;;;;;;2.00;0.80;;;;;;;;;;5060715;28;20404;-81
2024/02/26 06:24:27;;;;;;;1.27;0.80;;;;;;;;;;5060831;28;20839;-81
2024/02/26 06:26:53;;;;;;;1.35;1.10;;;;;;;;;;5060293;28;20392;-80
2024/02/26 06:29:19;;;;;;;2.10;1.00;;;;;;;;;;5060388;28;20389;-81
2024/02/26 06:31:45;;;;;;;1.48;1.30;;;;;;;;;;5060397;28;20385;-82
2024/02/26 06:34:11;;;;;;;2.87;1.50;;;;;;;;;;5060468;28;20401;-83
2024/02/26 06:36:37;;;;;;;2.85;1.85;;;;;;;;;;5061527;28;20879;-82
2024/02/26 06:39:05;;;;;;;1.70;1.30;;;;;;;;;;5060573;28;20439;-80
2024/02/26 06:41:31;;;;;;;1.13;1.00;;;;;;;;;;5060299;28;20425;-81
2024/02/26 06:43:57;;;;;;;0.95;0.85;;;;;;;;;;5061005;28;20373;-83
2024/02/26 06:46:23;;;;;;;2.10;1.10;;;;;;;;;;5060307;28;20919;-82
2024/02/26 06:48:50;;;;;;;0.80;0.80;;;;;;;;;;5059110;28;20412;-83
2024/02/26 06:51:16;;;;;;;1.40;1.10;;;;;;;;;;5057191;28;20405;-82
2024/02/26 06:53:42;;;;;;;1.70;1.02;;;;;;;;;;5057407;28;20389;-82
2024/02/26 06:56:08;;;;;;;1.38;0.90;;;;;;;;;;5056823;28;20410;-83
2024/02/26 06:58:34;;;;;;;1.70;1.10;;;;;;;;;;5057216;28;20381;-83
2024/02/26 07:00:59;;;;;;;1.60;0.93;;;;;;;;;;5057305;28;20377;-82
2024/02/26 07:03:25;;;;;;;1.67;1.23;;;;;;;;;;5057394;28;20376;-83
2024/02/26 07:05:52;;;;;;;1.60;1.10;;;;;;;;;;5053208;28;20448;-83
2024/02/26 07:08:18;;;;;;;1.20;0.80;;;;;;;;;;5056020;28;20457;-83
2024/02/26 07:10:44;;;;;;;0.88;0.82;;;;;;;;;;5056501;28;20461;-81
2024/02/26 07:13:10;;;;;;;1.10;0.80;;;;;;;;;;5055997;28;20382;-83
2024/02/26 07:15:36;;;;;;;1.67;1.17;;;;;;;;;;5055529;28;20439;-83
2024/02/26 07:18:03;;;;;;;2.15;1.90;;;;;;;;;;5056986;28;20451;-81
2024/02/26 07:20:30;;;;;;;2.35;2.15;;;;;;;;;;5057432;28;20379;-82
2024/02/26 07:22:56;;;;;;;3.42;3.13;;;;;;;;;;5056934;28;20385;-80
2024/02/26 07:25:22;;;;;;;2.00;1.83;;;;;;;;;;5056021;28;20443;-80
2024/02/26 07:27:48;;;;;;;1.55;1.27;;;;;;;;;;5054455;28;20473;-80
2024/02/26 07:30:15;;;;;;;2.78;1.45;;;;;;;;;;5057273;28;20388;-81
2024/02/26 07:32:41;;;;;;;1.55;1.23;;;;;;;;;;5057369;28;20376;-81
2024/02/26 07:35:07;;;;;;;1.88;1.52;;;;;;;;;;5056848;28;20856;-80
2024/02/26 07:37:33;;;;;;;2.10;1.30;;;;;;;;;;5057208;28;20381;-81
2024/02/26 07:39:59;;;;;;;1.33;1.20;;;;;;;;;;5056567;28;20370;-81
2024/02/26 07:42:25;;;;;;;1.52;1.42;;;;;;;;;;5056750;28;20500;-80
2024/02/26 07:44:52;;;;;;;1.53;1.20;;;;;;;;;;5057127;28;20377;-80
2024/02/26 07:47:18;;;;;;;1.67;1.30;;;;;;;;;;5056865;28;20720;-81
2024/02/26 07:49:44;;;;;;;2.58;1.48;;;;;;;;;;5056293;28;20389;-79
2024/02/26 07:52:10;;;;;;;4.95;3.85;;;;;;;;;;5056218;28;20405;-80
2024/02/26 07:54:36;;;;;;;3.80;3.40;;;;;;;;;;5056142;28;20409;-79
2024/02/26 07:57:05;;;;;;;6.13;4.10;;;;;;;;;;5056014;28;20381;-81
2024/02/26 07:59:31;;;;;;;4.63;3.90;;;;;;;;;;5056058;28;20380;-81
2024/02/26 08:01:57;;;;;;;4.95;3.63;;;;;;;;;;5055105;28;20374;-80
2024/02/26 08:04:23;;;;;;;2.65;2.45;;;;;;;;;;5055938;28;20502;-81
2024/02/26 08:06:49;;;;;;;7.22;2.05;;;;;;;;;;5037289;28;20879;-83
2024/02/26 08:09:15;;;;;;;2.47;1.95;;;;;;;;;;5035867;28;20450;-83
2024/02/26 08:11:41;;;;;;;1.80;1.50;;;;;;;;;;5036076;28;20841;-82
2024/02/26 08:14:07;;;;;;;2.50;1.58;;;;;;;;;;5036600;28;20421;-80
2024/02/26 08:16:33;;;;;;;3.50;2.45;;;;;;;;;;5036242;28;20794;-80
2024/02/26 08:18:59;;;;;;;2.00;1.80;;;;;;;;;;5035777;28;20415;-80
2024/02/26 08:21:25;;;;;;;2.22;1.67;;;;;;;;;;5035764;28;20745;-81
2024/02/26 08:23:51;;;;;;;2.38;1.80;;;;;;;;;;5034254;28;20403;-80
2024/02/26 08:26:17;;;;;;;2.20;1.67;;;;;;;;;;5035804;28;20478;-80
2024/02/26 08:28:44;;;;;;;2.20;1.50;;;;;;;;;;5035368;28;20468;-80
2024/02/26 08:31:10;;;;;;;2.35;1.60;;;;;;;;;;5035549;28;20394;-80
2024/02/26 08:33:36;;;;;;;3.38;1.50;;;;;;;;;;5035163;28;20395;-81
2024/02/26 08:36:06;;;;;;;3.45;1.60;;;;;;;;;;5034798;28;20414;-82
2024/02/26 08:38:34;;;;;;;1.67;1.50;;;;;;;;;;5035147;28;20733;-81
2024/02/26 08:41:00;;;;;;;1.85;1.65;;;;;;;;;;5035286;28;20378;-80
2024/02/26 08:43:26;;;;;;;1.83;1.60;;;;;;;;;;5035592;28;20395;-80
2024/02/26 08:45:53;;;;;;;1.83;1.73;;;;;;;;;;5034610;28;20707;-83
2024/02/26 08:48:19;;;;;;;2.33;1.65;;;;;;;;;;5035462;28;20489;-80
2024/02/26 08:50:45;;;;;;;2.07;1.57;;;;;;;;;;5036064;28;20399;-80
2024/02/26 08:53:11;;;;;;;1.77;1.63;;;;;;;;;;5034930;28;20422;-80
2024/02/26 08:55:37;;;;;;;1.45;1.33;;;;;;;;;;5034299;28;20450;-80
2024/02/26 08:58:03;;;;;;;3.10;1.50;;;;;;;;;;5034588;28;20477;-80
2024/02/26 09:00:29;;;;;;;4.68;2.50;;;;;;;;;;5034453;28;20375;-80
2024/02/26 09:02:55;;;;;;;2.45;2.10;;;;;;;;;;5033708;28;20383;-82
2024/02/26 09:05:21;;;;;;;2.65;2.40;;;;;;;;;;5034738;28;20382;-80
2024/02/26 09:07:47;;;;;;;4.57;3.38;;;;;;;;;;5034174;28;20391;-82
2024/02/26 09:10:13;;;;;;;3.30;2.92;;;;;;;;;;5034661;28;20872;-82
2024/02/26 09:12:39;;;;;;;3.90;3.60;;;;;;;;;;5036720;28;20433;-83
2024/02/26 09:15:07;;;;;;;4.10;3.70;;;;;;;;;;5034442;28;20407;-84
2024/02/26 09:17:33;;;;;;;4.18;3.78;;;;;;;;;;5034400;28;20445;-80
2024/02/26 09:19:59;;;;;;;6.60;3.92;;;;;;;;;;5035317;28;20379;-83
2024/02/26 09:22:25;;;;;;;4.03;3.38;;;;;;;;;;5034804;28;20383;-83
2024/02/26 09:24:52;;;;;;;3.33;3.03;;;;;;;;;;5033906;28;20469;-82
2024/02/26 09:27:18;;;;;;;4.13;2.50;;;;;;;;;;5033668;28;20391;-80
2024/02/26 09:29:44;;;;;;;2.50;2.30;;;;;;;;;;5033950;28;20387;-82
2024/02/26 09:32:10;;;;;;;2.13;1.80;;;;;;;;;;5036791;28;20420;-82
2024/02/26 09:34:37;;;;;;;2.42;1.80;;;;;;;;;;5054708;28;20397;-82
2024/02/26 09:37:03;;;;;;;2.58;2.15;;;;;;;;;;5053994;28;20385;-82
2024/02/26 09:39:29;;;;;;;1.90;1.70;;;;;;;;;;5054907;28;20386;-80
2024/02/26 09:41:55;;;;;;;1.70;1.60;;;;;;;;;;5054745;28;20388;-81
2024/02/26 09:44:21;;;;;;;2.25;1.92;;;;;;;;;;5054724;28;20388;-82
2024/02/26 09:46:53;;;;;;;2.00;1.70;;;;;;;;;;5054230;28;20435;-82
2024/02/26 09:49:20;;;;;;;1.75;1.63;;;;;;;;;;5053908;28;20403;-80
2024/02/26 09:51:48;;;;;;;1.92;1.58;;;;;;;;;;5054574;28;20480;-82
2024/02/26 09:54:15;;;;;;;1.90;1.58;;;;;;;;;;5054369;28;20373;-82
2024/02/26 09:56:41;;;;;;;2.00;1.80;;;;;;;;;;5054443;28;20443;-81
2024/02/26 09:59:11;;;;;;;1.73;1.63;;;;;;;;;;5052491;28;20382;-82
2024/02/26 10:01:38;;;;;;;2.10;1.60;;;;;;;;;;5054184;28;20392;-80
2024/02/26 10:04:04;;;;;;;1.50;1.40;;;;;;;;;;5054857;28;20430;-82
2024/02/26 10:06:31;;;;;;;1.60;1.50;;;;;;;;;;5054302;28;20392;-80
2024/02/26 10:08:59;;;;;;;1.50;1.40;;;;;;;;;;5054941;28;20401;-80
2024/02/26 10:11:25;;;;;;;2.08;1.60;;;;;;;;;;5054579;28;20377;-81
2024/02/26 10:13:51;;;;;;;1.85;1.50;;;;;;;;;;5054650;28;20377;-81
2024/02/26 10:16:18;;;;;;;2.42;2.10;;;;;;;;;;5053648;28;20547;-80
2024/02/26 10:18:48;;;;;;;2.05;1.58;;;;;;;;;;5053758;28;20790;-82
2024/02/26 10:21:15;;;;;;;2.00;1.60;;;;;;;;;;5054243;28;20369;-80
2024/02/26 10:23:42;;;;;;;1.73;1.60;;;;;;;;;;5055006;28;20370;-81
2024/02/26 10:26:08;;;;;;;2.00;1.58;;;;;;;;;;5057482;28;20401;-81
2024/02/26 10:28:34;;;;;;;1.55;1.25;;;;;;;;;;5057498;28;20385;-81
2024/02/26 10:31:00;;;;;;;2.17;1.50;;;;;;;;;;5057901;28;20428;-81
2024/02/26 10:33:26;;;;;;;2.88;1.40;;;;;;;;;;5057938;28;20859;-80
2024/02/26 10:35:54;;;;;;;2.97;1.70;;;;;;;;;;5057573;28;20409;-81
2024/02/26 10:38:20;;;;;;;2.20;1.80;;;;;;;;;;5057798;28;20400;-80
2024/02/26 10:40:47;;;;;;;1.45;1.35;;;;;;;;;;5057954;28;20384;-80
2024/02/26 10:43:14;;;;;;;2.27;1.70;;;;;;;;;;5056654;28;20840;-82
2024/02/26 10:45:42;;;;;;;1.60;1.50;;;;;;;;;;5056460;28;20531;-82
2024/02/26 10:48:15;;;;;;;2.50;1.90;;;;;;;;;;5047383;28;20432;-81
2024/02/26 10:50:44;;;;;;;2.22;1.55;;;;;;;;;;5057151;28;20743;-80
2024/02/26 10:53:22;;;;;;;4.20;1.98;;;;;;;;;;5057413;28;20424;-80
2024/02/26 10:55:55;;;;;;;2.10;1.50;;;;;;;;;;5057376;28;20514;-82
2024/02/26 10:58:22;;;;;;;2.40;1.70;;;;;;;;;;5057611;28;20415;-80
2024/02/26 11:00:49;;;;;;;1.60;1.50;;;;;;;;;;5058116;28;20389;-80
2024/02/26 11:03:20;;;;;;;2.10;1.50;;;;;;;;;;5057705;28;20761;-82
2024/02/26 11:05:47;;;;;;;1.60;1.50;;;;;;;;;;5057209;28;20373;-81
2024/02/26 11:08:13;;;;;;;2.33;1.58;;;;;;;;;;5056757;28;20393;-82
2024/02/26 11:10:40;;;;;;;2.20;1.70;;;;;;;;;;5056955;28;20401;-80
2024/02/26 11:13:06;;;;;;;4.47;1.80;;;;;;;;;;5056835;28;20388;-80
2024/02/26 11:15:33;;;;;;;2.88;1.50;;;;;;;;;;5055006;28;20407;-82
2024/02/26 11:18:00;;;;;;;2.55;1.48;;;;;;;;;;5037470;28;20371;-80
2024/02/26 11:20:29;;;;;;;2.35;1.50;;;;;;;;;;5037513;28;20380;-81
2024/02/26 11:22:55;;;;;;;2.03;1.65;;;;;;;;;;5037242;28;20375;-82
2024/02/26 11:25:21;;;;;;;2.22;1.60;;;;;;;;;;5048963;28;20393;-82
2024/02/26 11:27:57;;;;;;;2.50;1.70;;;;;;;;;;5057139;28;20544;-80
2024/02/26 11:30:25;;;;;;;2.63;1.30;;;;;;;;;;5057297;28;20394;-80
2024/02/26 11:32:52;;;;;;;2.95;1.70;;;;;;;;;;5057812;28;20946;-80
2024/02/26 11:35:18;;;;;;;3.08;1.48;;;;;;;;;;5055730;28;20879;-81
2024/02/26 11:37:54;;;;;;;3.92;1.50;;;;;;;;;;5056273;28;20463;-82
2024/02/26 11:40:20;;;;;;;2.42;1.80;;;;;;;;;;5055498;28;20435;-82
2024/02/26 11:42:48;;;;;;;2.63;1.80;;;;;;;;;;5055148;28;20747;-80
2024/02/26 11:45:35;;;;;;;2.95;1.70;;;;;;;;;;5055369;28;20934;-80
2024/02/26 11:48:01;;;;;;;1.77;1.60;;;;;;;;;;5055024;28;20437;-80
2024/02/26 11:50:37;;;;;;;2.97;1.92;;;;;;;;;;5055789;28;20396;-80
2024/02/26 11:53:21;;;;;;;2.72;1.70;;;;;;;;;;5055745;28;20386;-79
2024/02/26 11:55:49;;;;;;;4.30;3.53;;;;;;;;;;5055857;28;20863;-81
2024/02/26 11:58:15;;;;;;;1.98;1.77;;;;;;;;;;5054986;28;20886;-81
2024/02/26 12:00:41;;;;;;;5.05;4.55;;;;;;;;;;5054662;28;20855;-81
2024/02/26 12:03:08;;;;;;;2.97;1.95;;;;;;;;;;5055671;28;20770;-81
2024/02/26 12:05:36;;;;;;;62.80;32.13;;;;;;;;;;5055465;28;20386;-80
2024/02/26 12:08:09;;;;;;;3.67;2.42;;;;;;;;;;5054813;28;20382;-80
2024/02/26 12:10:38;;;;;;;2.28;1.70;;;;;;;;;;5054688;28;20789;-79
2024/02/26 12:13:08;;;;;;;3.00;1.80;;;;;;;;;;5055353;28;20378;-79
2024/02/26 12:15:38;;;;;;;2.13;1.33;;;;;;;;;;5054899;28;20408;-81
2024/02/26 12:18:05;;;;;;;2.17;1.98;;;;;;;;;;5055126;28;20409;-81
2024/02/26 12:20:31;;;;;;;2.10;1.47;;;;;;;;;;5055797;28;20381;-81
2024/02/26 12:22:58;;;;;;;12.82;11.20;;;;;;;;;;5055641;28;20378;-81
2024/02/26 12:25:30;;;;;;;3.50;1.60;;;;;;;;;;5055977;28;20413;-82
2024/02/26 12:27:56;;;;;;;2.83;2.38;;;;;;;;;;5055908;28;20381;-81
2024/02/26 12:30:22;;;;;;;2.60;2.40;;;;;;;;;;5055679;28;20419;-81
2024/02/26 12:32:52;;;;;;;3.47;2.40;;;;;;;;;;5054382;28;20417;-81
2024/02/26 12:35:18;;;;;;;2.05;1.40;;;;;;;;;;5055264;28;20755;-80
2024/02/26 12:37:45;;;;;;;1.75;1.50;;;;;;;;;;5055401;28;20829;-81
2024/02/26 12:40:11;;;;;;;2.33;2.13;;;;;;;;;;5054298;28;20385;-82
2024/02/26 12:42:40;;;;;;;1.73;1.60;;;;;;;;;;5055244;28;20465;-81
2024/02/26 12:45:09;;;;;;;3.00;1.30;;;;;;;;;;5055762;28;20389;-81
2024/02/26 12:47:38;;;;;;;1.70;1.40;;;;;;;;;;5053100;28;20393;-80
2024/02/26 12:50:05;;;;;;;4.80;3.60;;;;;;;;;;5052735;28;20389;-82
2024/02/26 12:52:34;;;;;;;1.53;1.30;;;;;;;;;;5055694;28;20461;-81
2024/02/26 12:55:01;;;;;;;2.00;1.35;;;;;;;;;;5070695;28;20424;-81
2024/02/26 12:57:29;;;;;;;1.42;1.33;;;;;;;;;;5053665;28;20444;-82
2024/02/26 12:59:56;;;;;;;20.23;12.75;;;;;;;;;;5055101;28;20389;-81
2024/02/26 13:02:22;;;;;;;42.88;25.05;;;;;;;;;;5055485;28;20713;-81
2024/02/26 13:04:51;;;;;;;17.52;13.10;;;;;;;;;;5054233;28;20421;-80
2024/02/26 13:07:17;;;;;;;2.95;2.33;;;;;;;;;;5054890;28;20430;-80
2024/02/26 13:09:43;;;;;;;2.67;1.60;;;;;;;;;;5052043;28;20451;-81
2024/02/26 13:12:09;;;;;;;2.45;1.67;;;;;;;;;;5054455;28;20392;-81
2024/02/26 13:14:35;;;;;;;2.42;1.48;;;;;;;;;;5054830;28;20461;-81
2024/02/26 13:17:02;;;;;;;1.52;1.20;;;;;;;;;;5055092;28;20381;-80
2024/02/26 13:19:28;;;;;;;3.03;1.40;;;;;;;;;;5055488;28;20413;-80
2024/02/26 13:21:55;;;;;;;2.00;1.20;;;;;;;;;;5055328;28;20373;-81
2024/02/26 13:24:22;;;;;;;1.55;1.20;;;;;;;;;;5055579;28;20382;-82
2024/02/26 13:26:48;;;;;;;2.20;1.75;;;;;;;;;;5054824;28;20742;-80
2024/02/26 13:29:20;;;;;;;1.75;1.30;;;;;;;;;;5054230;28;20389;-81
2024/02/26 13:31:46;;;;;;;1.80;1.15;;;;;;;;;;5054960;28;20898;-81
2024/02/26 13:34:24;;;;;;;1.25;1.15;;;;;;;;;;5054713;28;20384;-81
2024/02/26 13:36:50;;;;;;;2.08;1.38;;;;;;;;;;5055311;28;20464;-81
2024/02/26 13:39:23;;;;;;;2.63;1.50;;;;;;;;;;5055314;28;20641;-82
2024/02/26 13:41:49;;;;;;;2.40;1.08;;;;;;;;;;5054756;28;20916;-82
2024/02/26 13:44:15;;;;;;;1.95;1.40;;;;;;;;;;5055496;28;20438;-81
2024/02/26 13:46:41;;;;;;;1.60;1.20;;;;;;;;;;5054798;28;20457;-80
2024/02/26 13:49:09;;;;;;;1.40;1.30;;;;;;;;;;5054507;28;20537;-81
2024/02/26 13:51:36;;;;;;;1.20;1.10;;;;;;;;;;5054484;28;20386;-82
2024/02/26 13:54:02;;;;;;;2.53;1.42;;;;;;;;;;5055237;28;20467;-81
2024/02/26 13:56:28;;;;;;;1.75;1.10;;;;;;;;;;5055608;28;20401;-81
2024/02/26 13:58:54;;;;;;;2.30;1.20;;;;;;;;;;5057136;28;20377;-82
2024/02/26 14:01:20;;;;;;;2.40;1.10;;;;;;;;;;5057357;28;20393;-82
2024/02/26 14:03:46;;;;;;;1.02;0.93;;;;;;;;;;5043260;28;20391;-82
2024/02/26 14:06:12;;;;;;;1.10;0.98;;;;;;;;;;5057547;28;20472;-82
2024/02/26 14:08:38;;;;;;;2.00;1.00;;;;;;;;;;5057948;28;20396;-81
2024/02/26 14:11:04;;;;;;;0.80;0.80;;;;;;;;;;5058323;28;20389;-81
2024/02/26 14:13:30;;;;;;;0.60;0.60;;;;;;;;;;5058939;28;20384;-84
2024/02/26 14:15:56;;;;;;;0.90;0.80;;;;;;;;;;5058615;28;20546;-81
2024/02/26 14:18:22;;;;;;;2.20;0.82;;;;;;;;;;5058219;28;20377;-82
2024/02/26 14:20:48;;;;;;;1.23;1.00;;;;;;;;;;5058778;28;20453;-81
2024/02/26 14:23:14;;;;;;;1.85;0.80;;;;;;;;;;5058022;28;20459;-81
2024/02/26 14:25:40;;;;;;;1.42;0.95;;;;;;;;;;5058308;28;20409;-81
2024/02/26 14:28:06;;;;;;;0.73;0.70;;;;;;;;;;5057106;28;20446;-81
2024/02/26 14:30:33;;;;;;;3.08;0.70;;;;;;;;;;5057859;28;20458;-80
2024/02/26 14:32:59;;;;;;;1.50;1.40;;;;;;;;;;5058392;28;20386;-81
2024/02/26 14:35:26;;;;;;;1.40;0.85;;;;;;;;;;5058772;28;20432;-81
2024/02/26 14:37:52;;;;;;;0.60;0.60;;;;;;;;;;5058982;28;20739;-81
2024/02/26 14:40:18;;;;;;;0.88;0.70;;;;;;;;;;5058620;28;20731;-81